sensor_id;sensor_type;location;lat;lon;timestamp;pressure;altitude;pressure_sealevel;temperature
10869;BMP180;62667;48.698;8.762;2022-09-04T00:02:11;96031.00;;;15.40
10869;BMP180;62667;48.698;8.762;2022-09-04T00:04:46;96027.00;;;15.40
10869;BMP180;62667;48.698;8.762;2022-09-04T00:07:24;96026.00;;;15.30
10869;BMP180;62667;48.698;8.762;2022-09-04T00:10:00;96022.00;;;15.30
10869;BMP180;62667;48.698;8.762;2022-09-04T00:12:42;96022.00;;;15.30
10869;BMP180;62667;48.698;8.762;2022-09-04T00:15:13;96022.00;;;15.10
10869;BMP180;62667;48.698;8.762;2022-09-04T00:17:48;96029.00;;;15.10
10869;BMP180;62667;48.698;8.762;2022-09-04T00:20:25;96028.00;;;15.00
10869;BMP180;62667;48.698;8.762;2022-09-04T00:22:58;96032.00;;;15.00
10869;BMP180;62667;48.698;8.762;2022-09-04T00:25:36;96030.00;;;15.00
10869;BMP180;62667;48.698;8.762;2022-09-04T00:28:11;96031.00;;;15.00
10869;BMP180;62667;48.698;8.762;2022-09-04T00:30:51;96031.00;;;15.00
10869;BMP180;62667;48.698;8.762;2022-09-04T00:33:26;96036.00;;;14.80
10869;BMP180;62667;48.698;8.762;2022-09-04T00:35:57;96029.00;;;14.90
10869;BMP180;62667;48.698;8.762;2022-09-04T00:38:37;96029.00;;;14.90
10869;BMP180;62667;48.698;8.762;2022-09-04T00:41:14;96034.00;;;14.90
10869;BMP180;62667;48.698;8.762;2022-09-04T00:44:13;96031.00;;;14.90
10869;BMP180;62667;48.698;8.762;2022-09-04T00:47:01;96035.00;;;14.80
10869;BMP180;62667;48.698;8.762;2022-09-04T00:49:48;96039.00;;;14.80
10869;BMP180;62667;48.698;8.762;2022-09-04T00:52:27;96039.00;;;14.90
10869;BMP180;62667;48.698;8.762;2022-09-04T00:55:19;96044.00;;;14.80
10869;BMP180;62667;48.698;8.762;2022-09-04T00:58:09;96043.00;;;14.70
10869;BMP180;62667;48.698;8.762;2022-09-04T01:00:41;96045.00;;;14.70
10869;BMP180;62667;48.698;8.762;2022-09-04T01:03:37;96056.00;;;14.60
10869;BMP180;62667;48.698;8.762;2022-09-04T01:06:28;96051.00;;;14.50
10869;BMP180;62667;48.698;8.762;2022-09-04T01:12:00;96026.00;;;14.40
10869;BMP180;62667;48.698;8.762;2022-09-04T01:14:35;96063.00;;;14.50
10869;BMP180;62667;48.698;8.762;2022-09-04T01:17:11;96060.00;;;14.50
10869;BMP180;62667;48.698;8.762;2022-09-04T01:19:49;96062.00;;;14.50
10869;BMP180;62667;48.698;8.762;2022-09-04T01:22:32;96067.00;;;14.50
10869;BMP180;62667;48.698;8.762;2022-09-04T01:25:16;96057.00;;;14.50
10869;BMP180;62667;48.698;8.762;2022-09-04T01:27:57;96059.00;;;14.50
10869;BMP180;62667;48.698;8.762;2022-09-04T01:30:32;96065.00;;;14.30
10869;BMP180;62667;48.698;8.762;2022-09-04T01:33:09;96077.00;;;14.30
10869;BMP180;62667;48.698;8.762;2022-09-04T01:35:42;96073.00;;;14.20
10869;BMP180;62667;48.698;8.762;2022-09-04T01:38:17;96070.00;;;14.20
10869;BMP180;62667;48.698;8.762;2022-09-04T01:40:50;96070.00;;;14.10
10869;BMP180;62667;48.698;8.762;2022-09-04T01:43:21;96067.00;;;14.20
10869;BMP180;62667;48.698;8.762;2022-09-04T01:46:14;96076.00;;;14.20
10869;BMP180;62667;48.698;8.762;2022-09-04T01:48:47;96079.00;;;14.20
10869;BMP180;62667;48.698;8.762;2022-09-04T01:51:25;96085.00;;;14.20
10869;BMP180;62667;48.698;8.762;2022-09-04T01:54:10;96088.00;;;14.30
10869;BMP180;62667;48.698;8.762;2022-09-04T01:56:41;96086.00;;;14.30
10869;BMP180;62667;48.698;8.762;2022-09-04T01:59:17;96081.00;;;14.20
10869;BMP180;62667;48.698;8.762;2022-09-04T02:01:54;96081.00;;;14.20
10869;BMP180;62667;48.698;8.762;2022-09-04T02:04:30;96082.00;;;14.30
10869;BMP180;62667;48.698;8.762;2022-09-04T02:07:06;96077.00;;;14.20
10869;BMP180;62667;48.698;8.762;2022-09-04T02:09:42;96082.00;;;14.10
10869;BMP180;62667;48.698;8.762;2022-09-04T02:12:17;96079.00;;;14.10
10869;BMP180;62667;48.698;8.762;2022-09-04T02:14:57;96077.00;;;14.00
10869;BMP180;62667;48.698;8.762;2022-09-04T02:17:37;96085.00;;;14.00
10869;BMP180;62667;48.698;8.762;2022-09-04T02:20:20;96090.00;;;14.00
10869;BMP180;62667;48.698;8.762;2022-09-04T02:22:57;96083.00;;;14.00
10869;BMP180;62667;48.698;8.762;2022-09-04T02:25:28;96087.00;;;14.00
10869;BMP180;62667;48.698;8.762;2022-09-04T02:28:11;96082.00;;;14.00
10869;BMP180;62667;48.698;8.762;2022-09-04T02:30:48;96085.00;;;13.90
10869;BMP180;62667;48.698;8.762;2022-09-04T02:33:22;96085.00;;;14.00
10869;BMP180;62667;48.698;8.762;2022-09-04T02:35:58;96084.00;;;14.00
10869;BMP180;62667;48.698;8.762;2022-09-04T02:38:31;96079.00;;;14.00
10869;BMP180;62667;48.698;8.762;2022-09-04T02:41:06;96081.00;;;13.90
10869;BMP180;62667;48.698;8.762;2022-09-04T02:43:53;96079.00;;;13.80
10869;BMP180;62667;48.698;8.762;2022-09-04T02:46:29;96087.00;;;13.80
10869;BMP180;62667;48.698;8.762;2022-09-04T02:49:07;96091.00;;;13.70
10869;BMP180;62667;48.698;8.762;2022-09-04T02:51:55;96079.00;;;13.60
10869;BMP180;62667;48.698;8.762;2022-09-04T02:54:42;96087.00;;;13.50
10869;BMP180;62667;48.698;8.762;2022-09-04T02:57:24;96087.00;;;13.50
10869;BMP180;62667;48.698;8.762;2022-09-04T03:00:00;96097.00;;;13.50
10869;BMP180;62667;48.698;8.762;2022-09-04T03:02:34;96094.00;;;13.60
10869;BMP180;62667;48.698;8.762;2022-09-04T03:05:10;96099.00;;;13.60
10869;BMP180;62667;48.698;8.762;2022-09-04T03:07:41;96097.00;;;13.60
10869;BMP180;62667;48.698;8.762;2022-09-04T03:10:16;96091.00;;;13.50
10869;BMP180;62667;48.698;8.762;2022-09-04T03:12:46;96093.00;;;13.40
10869;BMP180;62667;48.698;8.762;2022-09-04T03:15:21;96097.00;;;13.40
10869;BMP180;62667;48.698;8.762;2022-09-04T03:17:59;96105.00;;;13.30
10869;BMP180;62667;48.698;8.762;2022-09-04T03:20:32;96090.00;;;13.40
10869;BMP180;62667;48.698;8.762;2022-09-04T03:23:08;96101.00;;;13.40
10869;BMP180;62667;48.698;8.762;2022-09-04T03:26:11;96102.00;;;13.40
10869;BMP180;62667;48.698;8.762;2022-09-04T03:28:53;96108.00;;;13.20
10869;BMP180;62667;48.698;8.762;2022-09-04T03:31:30;96105.00;;;13.10
10869;BMP180;62667;48.698;8.762;2022-09-04T03:34:15;96108.00;;;13.00
10869;BMP180;62667;48.698;8.762;2022-09-04T03:37:00;96107.00;;;13.00
10869;BMP180;62667;48.698;8.762;2022-09-04T03:39:44;96104.00;;;13.00
10869;BMP180;62667;48.698;8.762;2022-09-04T03:42:28;96113.00;;;13.00
10869;BMP180;62667;48.698;8.762;2022-09-04T03:45:13;96108.00;;;13.00
10869;BMP180;62667;48.698;8.762;2022-09-04T03:47:58;96107.00;;;12.90
10869;BMP180;62667;48.698;8.762;2022-09-04T03:50:36;96104.00;;;12.70
10869;BMP180;62667;48.698;8.762;2022-09-04T03:53:15;96100.00;;;12.70
10869;BMP180;62667;48.698;8.762;2022-09-04T03:56:38;96111.00;;;12.80
10869;BMP180;62667;48.698;8.762;2022-09-04T03:59:19;96117.00;;;12.80
10869;BMP180;62667;48.698;8.762;2022-09-04T04:01:57;96115.00;;;12.80
10869;BMP180;62667;48.698;8.762;2022-09-04T04:05:07;96118.00;;;12.80
10869;BMP180;62667;48.698;8.762;2022-09-04T04:07:51;96117.00;;;12.80
10869;BMP180;62667;48.698;8.762;2022-09-04T04:10:28;96127.00;;;12.90
10869;BMP180;62667;48.698;8.762;2022-09-04T04:13:42;96126.00;;;12.90
10869;BMP180;62667;48.698;8.762;2022-09-04T04:16:26;96138.00;;;12.90
10869;BMP180;62667;48.698;8.762;2022-09-04T04:19:23;96132.00;;;12.90
10869;BMP180;62667;48.698;8.762;2022-09-04T04:22:16;96132.00;;;12.90
10869;BMP180;62667;48.698;8.762;2022-09-04T04:25:05;96133.00;;;13.00
10869;BMP180;62667;48.698;8.762;2022-09-04T04:28:01;96145.00;;;13.00
10869;BMP180;62667;48.698;8.762;2022-09-04T04:30:42;96137.00;;;12.90
10869;BMP180;62667;48.698;8.762;2022-09-04T04:33:41;96142.00;;;12.80
10869;BMP180;62667;48.698;8.762;2022-09-04T04:36:20;96146.00;;;12.70
10869;BMP180;62667;48.698;8.762;2022-09-04T04:39:10;96151.00;;;12.80
10869;BMP180;62667;48.698;8.762;2022-09-04T04:42:07;96160.00;;;12.80
10869;BMP180;62667;48.698;8.762;2022-09-04T04:45:12;96161.00;;;12.80
10869;BMP180;62667;48.698;8.762;2022-09-04T04:51:50;96165.00;;;12.80
10869;BMP180;62667;48.698;8.762;2022-09-04T04:54:42;96162.00;;;12.80
10869;BMP180;62667;48.698;8.762;2022-09-04T04:57:22;96169.00;;;12.60
10869;BMP180;62667;48.698;8.762;2022-09-04T05:00:00;96169.00;;;12.50
10869;BMP180;62667;48.698;8.762;2022-09-04T05:02:40;96170.00;;;12.50
10869;BMP180;62667;48.698;8.762;2022-09-04T05:05:15;96172.00;;;12.50
10869;BMP180;62667;48.698;8.762;2022-09-04T05:07:58;96184.00;;;12.60
10869;BMP180;62667;48.698;8.762;2022-09-04T05:10:35;96174.00;;;12.50
10869;BMP180;62667;48.698;8.762;2022-09-04T05:13:21;96185.00;;;12.50
10869;BMP180;62667;48.698;8.762;2022-09-04T05:15:59;96189.00;;;12.50
10869;BMP180;62667;48.698;8.762;2022-09-04T05:18:34;96188.00;;;12.50
10869;BMP180;62667;48.698;8.762;2022-09-04T05:21:13;96198.00;;;12.60
10869;BMP180;62667;48.698;8.762;2022-09-04T05:23:50;96207.00;;;12.60
10869;BMP180;62667;48.698;8.762;2022-09-04T05:26:28;96203.00;;;12.70
10869;BMP180;62667;48.698;8.762;2022-09-04T05:29:11;96213.00;;;12.80
10869;BMP180;62667;48.698;8.762;2022-09-04T05:31:48;96211.00;;;12.90
10869;BMP180;62667;48.698;8.762;2022-09-04T05:34:28;96215.00;;;12.90
10869;BMP180;62667;48.698;8.762;2022-09-04T05:37:09;96227.00;;;13.00
10869;BMP180;62667;48.698;8.762;2022-09-04T05:39:49;96234.00;;;13.00
10869;BMP180;62667;48.698;8.762;2022-09-04T05:42:41;96236.00;;;12.90
10869;BMP180;62667;48.698;8.762;2022-09-04T05:45:17;96243.00;;;12.90
10869;BMP180;62667;48.698;8.762;2022-09-04T05:47:57;96237.00;;;13.00
10869;BMP180;62667;48.698;8.762;2022-09-04T05:53:42;96257.00;;;13.10
10869;BMP180;62667;48.698;8.762;2022-09-04T05:59:38;96260.00;;;13.00
10869;BMP180;62667;48.698;8.762;2022-09-04T06:02:25;96252.00;;;13.00
10869;BMP180;62667;48.698;8.762;2022-09-04T06:05:09;96257.00;;;13.10
10869;BMP180;62667;48.698;8.762;2022-09-04T06:07:44;96253.00;;;13.20
10869;BMP180;62667;48.698;8.762;2022-09-04T06:10:18;96254.00;;;13.20
10869;BMP180;62667;48.698;8.762;2022-09-04T06:13:11;96251.00;;;13.20
10869;BMP180;62667;48.698;8.762;2022-09-04T06:15:52;96261.00;;;13.20
10869;BMP180;62667;48.698;8.762;2022-09-04T06:21:40;96267.00;;;13.30
10869;BMP180;62667;48.698;8.762;2022-09-04T06:24:31;96266.00;;;13.40
10869;BMP180;62667;48.698;8.762;2022-09-04T06:27:29;96276.00;;;13.50
10869;BMP180;62667;48.698;8.762;2022-09-04T06:30:06;96269.00;;;13.60
10869;BMP180;62667;48.698;8.762;2022-09-04T06:32:56;96280.00;;;13.70
10869;BMP180;62667;48.698;8.762;2022-09-04T06:35:52;96278.00;;;13.70
10869;BMP180;62667;48.698;8.762;2022-09-04T06:38:35;96277.00;;;13.80
10869;BMP180;62667;48.698;8.762;2022-09-04T06:41:23;96274.00;;;13.90
10869;BMP180;62667;48.698;8.762;2022-09-04T06:43:59;96279.00;;;14.10
10869;BMP180;62667;48.698;8.762;2022-09-04T06:46:36;96275.00;;;14.20
10869;BMP180;62667;48.698;8.762;2022-09-04T06:49:08;96283.00;;;14.00
10869;BMP180;62667;48.698;8.762;2022-09-04T06:51:58;96284.00;;;14.20
10869;BMP180;62667;48.698;8.762;2022-09-04T06:54:44;96285.00;;;14.30
10869;BMP180;62667;48.698;8.762;2022-09-04T06:57:33;96286.00;;;14.50
10869;BMP180;62667;48.698;8.762;2022-09-04T07:00:06;96292.00;;;14.60
10869;BMP180;62667;48.698;8.762;2022-09-04T07:03:00;96302.00;;;14.70
10869;BMP180;62667;48.698;8.762;2022-09-04T07:05:34;96296.00;;;14.80
10869;BMP180;62667;48.698;8.762;2022-09-04T07:08:16;96302.00;;;15.00
10869;BMP180;62667;48.698;8.762;2022-09-04T07:10:51;96310.00;;;15.00
10869;BMP180;62667;48.698;8.762;2022-09-04T07:13:45;96301.00;;;15.20
10869;BMP180;62667;48.698;8.762;2022-09-04T07:16:32;96305.00;;;15.40
10869;BMP180;62667;48.698;8.762;2022-09-04T07:19:19;96312.00;;;15.60
10869;BMP180;62667;48.698;8.762;2022-09-04T07:21:58;96309.00;;;15.70
10869;BMP180;62667;48.698;8.762;2022-09-04T07:24:55;96310.00;;;15.80
10869;BMP180;62667;48.698;8.762;2022-09-04T07:27:41;96308.00;;;15.90
10869;BMP180;62667;48.698;8.762;2022-09-04T07:30:12;96310.00;;;16.10
10869;BMP180;62667;48.698;8.762;2022-09-04T07:32:44;96317.00;;;16.20
10869;BMP180;62667;48.698;8.762;2022-09-04T07:35:17;96311.00;;;16.30
10869;BMP180;62667;48.698;8.762;2022-09-04T07:37:53;96317.00;;;16.40
10869;BMP180;62667;48.698;8.762;2022-09-04T07:40:29;96323.00;;;16.50
10869;BMP180;62667;48.698;8.762;2022-09-04T07:43:04;96323.00;;;16.60
10869;BMP180;62667;48.698;8.762;2022-09-04T07:45:35;96332.00;;;16.80
10869;BMP180;62667;48.698;8.762;2022-09-04T07:48:14;96340.00;;;17.10
10869;BMP180;62667;48.698;8.762;2022-09-04T07:50:55;96326.00;;;17.20
10869;BMP180;62667;48.698;8.762;2022-09-04T07:53:42;96335.00;;;17.30
10869;BMP180;62667;48.698;8.762;2022-09-04T07:56:19;96332.00;;;17.40
10869;BMP180;62667;48.698;8.762;2022-09-04T08:02:05;96327.00;;;17.70
10869;BMP180;62667;48.698;8.762;2022-09-04T08:04:51;96333.00;;;17.90
10869;BMP180;62667;48.698;8.762;2022-09-04T08:07:41;96338.00;;;18.00
10869;BMP180;62667;48.698;8.762;2022-09-04T08:10:21;96337.00;;;18.20
10869;BMP180;62667;48.698;8.762;2022-09-04T08:13:13;96347.00;;;18.50
10869;BMP180;62667;48.698;8.762;2022-09-04T08:15:52;96346.00;;;18.70
10869;BMP180;62667;48.698;8.762;2022-09-04T08:18:32;96350.00;;;18.70
10869;BMP180;62667;48.698;8.762;2022-09-04T08:21:14;96349.00;;;18.80
10869;BMP180;62667;48.698;8.762;2022-09-04T08:24:00;96351.00;;;19.10
10869;BMP180;62667;48.698;8.762;2022-09-04T08:26:49;96358.00;;;19.20
10869;BMP180;62667;48.698;8.762;2022-09-04T08:29:47;96360.00;;;19.40
10869;BMP180;62667;48.698;8.762;2022-09-04T08:32:30;96355.00;;;19.50
10869;BMP180;62667;48.698;8.762;2022-09-04T08:35:11;96349.00;;;19.70
10869;BMP180;62667;48.698;8.762;2022-09-04T08:37:54;96362.00;;;19.90
10869;BMP180;62667;48.698;8.762;2022-09-04T08:43:48;96353.00;;;20.20
10869;BMP180;62667;48.698;8.762;2022-09-04T08:50:11;96362.00;;;20.60
10869;BMP180;62667;48.698;8.762;2022-09-04T08:56:04;96366.00;;;20.90
10869;BMP180;62667;48.698;8.762;2022-09-04T09:05:20;96363.00;;;21.20
10869;BMP180;62667;48.698;8.762;2022-09-04T09:08:12;96359.00;;;21.40
10869;BMP180;62667;48.698;8.762;2022-09-04T09:11:05;96356.00;;;21.50
10869;BMP180;62667;48.698;8.762;2022-09-04T09:16:43;96355.00;;;21.70
10869;BMP180;62667;48.698;8.762;2022-09-04T09:19:18;96324.00;;;21.50
10869;BMP180;62667;48.698;8.762;2022-09-04T09:22:07;96352.00;;;21.70
10869;BMP180;62667;48.698;8.762;2022-09-04T09:25:06;96350.00;;;22.20
10869;BMP180;62667;48.698;8.762;2022-09-04T09:28:13;96351.00;;;22.40
10869;BMP180;62667;48.698;8.762;2022-09-04T09:31:11;96359.00;;;22.90
10869;BMP180;62667;48.698;8.762;2022-09-04T09:34:39;96360.00;;;22.80
10869;BMP180;62667;48.698;8.762;2022-09-04T09:49:59;96367.00;;;23.00
10869;BMP180;62667;48.698;8.762;2022-09-04T09:56:12;96372.00;;;22.50
10869;BMP180;62667;48.698;8.762;2022-09-04T10:02:13;96366.00;;;22.20
10869;BMP180;62667;48.698;8.762;2022-09-04T10:05:13;96369.00;;;22.00
10869;BMP180;62667;48.698;8.762;2022-09-04T10:08:02;96367.00;;;22.00
10869;BMP180;62667;48.698;8.762;2022-09-04T10:11:07;96364.00;;;22.00
10869;BMP180;62667;48.698;8.762;2022-09-04T10:14:09;96367.00;;;22.00
10869;BMP180;62667;48.698;8.762;2022-09-04T10:17:13;96367.00;;;22.00
10869;BMP180;62667;48.698;8.762;2022-09-04T10:23:17;96361.00;;;22.10
10869;BMP180;62667;48.698;8.762;2022-09-04T10:26:01;96359.00;;;22.00
10869;BMP180;62667;48.698;8.762;2022-09-04T10:32:00;96361.00;;;22.20
10869;BMP180;62667;48.698;8.762;2022-09-04T10:37:37;96367.00;;;22.30
10869;BMP180;62667;48.698;8.762;2022-09-04T10:40:20;96351.00;;;22.40
10869;BMP180;62667;48.698;8.762;2022-09-04T10:43:36;96373.00;;;22.20
10869;BMP180;62667;48.698;8.762;2022-09-04T10:46:08;96352.00;;;22.40
10869;BMP180;62667;48.698;8.762;2022-09-04T10:55:12;96374.00;;;22.70
10869;BMP180;62667;48.698;8.762;2022-09-04T10:58:05;96355.00;;;22.30
10869;BMP180;62667;48.698;8.762;2022-09-04T11:00:45;96363.00;;;22.30
10869;BMP180;62667;48.698;8.762;2022-09-04T11:03:49;96361.00;;;22.40
10869;BMP180;62667;48.698;8.762;2022-09-04T11:06:41;96339.00;;;23.00
10869;BMP180;62667;48.698;8.762;2022-09-04T11:09:32;96342.00;;;23.90
10869;BMP180;62667;48.698;8.762;2022-09-04T11:15:25;96337.00;;;24.80
10869;BMP180;62667;48.698;8.762;2022-09-04T11:21:47;96333.00;;;25.30
10869;BMP180;62667;48.698;8.762;2022-09-04T11:30:44;96332.00;;;26.10
10869;BMP180;62667;48.698;8.762;2022-09-04T11:33:49;96332.00;;;26.20
10869;BMP180;62667;48.698;8.762;2022-09-04T11:39:42;96337.00;;;26.10
10869;BMP180;62667;48.698;8.762;2022-09-04T11:42:34;96347.00;;;26.20
10869;BMP180;62667;48.698;8.762;2022-09-04T11:51:06;96351.00;;;25.50
10869;BMP180;62667;48.698;8.762;2022-09-04T11:53:50;96357.00;;;25.10
10869;BMP180;62667;48.698;8.762;2022-09-04T11:56:58;96361.00;;;24.70
10869;BMP180;62667;48.698;8.762;2022-09-04T11:59:42;96367.00;;;24.90
10869;BMP180;62667;48.698;8.762;2022-09-04T12:02:40;96370.00;;;25.10
10869;BMP180;62667;48.698;8.762;2022-09-04T12:05:26;96363.00;;;25.20
10869;BMP180;62667;48.698;8.762;2022-09-04T12:08:21;96383.00;;;25.30
10869;BMP180;62667;48.698;8.762;2022-09-04T12:11:04;96373.00;;;25.10
10869;BMP180;62667;48.698;8.762;2022-09-04T12:13:51;96371.00;;;25.00
10869;BMP180;62667;48.698;8.762;2022-09-04T12:19:37;96377.00;;;24.90
10869;BMP180;62667;48.698;8.762;2022-09-04T12:22:32;96371.00;;;25.00
10869;BMP180;62667;48.698;8.762;2022-09-04T12:25:37;96376.00;;;25.40
10869;BMP180;62667;48.698;8.762;2022-09-04T12:28:34;96354.00;;;25.30
10869;BMP180;62667;48.698;8.762;2022-09-04T12:31:16;96355.00;;;25.80
10869;BMP180;62667;48.698;8.762;2022-09-04T12:34:01;96349.00;;;26.70
10869;BMP180;62667;48.698;8.762;2022-09-04T12:37:04;96350.00;;;27.20
10869;BMP180;62667;48.698;8.762;2022-09-04T12:40:00;96350.00;;;27.50
10869;BMP180;62667;48.698;8.762;2022-09-04T12:42:39;96352.00;;;27.60
10869;BMP180;62667;48.698;8.762;2022-09-04T12:45:18;96376.00;;;27.30
10869;BMP180;62667;48.698;8.762;2022-09-04T12:47:56;96356.00;;;27.60
10869;BMP180;62667;48.698;8.762;2022-09-04T12:50:33;96356.00;;;27.40
10869;BMP180;62667;48.698;8.762;2022-09-04T12:53:26;96362.00;;;28.10
10869;BMP180;62667;48.698;8.762;2022-09-04T12:56:04;96363.00;;;28.30
10869;BMP180;62667;48.698;8.762;2022-09-04T12:58:48;96361.00;;;28.40
10869;BMP180;62667;48.698;8.762;2022-09-04T13:01:24;96364.00;;;28.60
10869;BMP180;62667;48.698;8.762;2022-09-04T13:04:09;96363.00;;;28.70
10869;BMP180;62667;48.698;8.762;2022-09-04T13:06:50;96362.00;;;28.70
10869;BMP180;62667;48.698;8.762;2022-09-04T13:09:27;96367.00;;;29.00
10869;BMP180;62667;48.698;8.762;2022-09-04T13:12:09;96370.00;;;28.90
10869;BMP180;62667;48.698;8.762;2022-09-04T13:15:07;96363.00;;;29.00
10869;BMP180;62667;48.698;8.762;2022-09-04T13:17:50;96370.00;;;28.60
10869;BMP180;62667;48.698;8.762;2022-09-04T13:20:26;96389.00;;;28.70
10869;BMP180;62667;48.698;8.762;2022-09-04T13:23:10;96370.00;;;28.90
10869;BMP180;62667;48.698;8.762;2022-09-04T13:25:53;96370.00;;;29.70
10869;BMP180;62667;48.698;8.762;2022-09-04T13:28:35;96396.00;;;28.50
10869;BMP180;62667;48.698;8.762;2022-09-04T13:31:25;96398.00;;;28.00
10869;BMP180;62667;48.698;8.762;2022-09-04T13:34:05;96388.00;;;27.50
10869;BMP180;62667;48.698;8.762;2022-09-04T13:36:46;96386.00;;;27.40
10869;BMP180;62667;48.698;8.762;2022-09-04T13:39:38;96374.00;;;27.80
10869;BMP180;62667;48.698;8.762;2022-09-04T13:42:41;96366.00;;;28.50
10869;BMP180;62667;48.698;8.762;2022-09-04T13:45:16;96389.00;;;28.50
10869;BMP180;62667;48.698;8.762;2022-09-04T13:47:54;96364.00;;;28.70
10869;BMP180;62667;48.698;8.762;2022-09-04T13:50:25;96364.00;;;29.40
10869;BMP180;62667;48.698;8.762;2022-09-04T13:52:57;96362.00;;;29.80
10869;BMP180;62667;48.698;8.762;2022-09-04T13:55:28;96366.00;;;30.20
10869;BMP180;62667;48.698;8.762;2022-09-04T13:58:01;96365.00;;;30.80
10869;BMP180;62667;48.698;8.762;2022-09-04T14:00:31;96363.00;;;31.20
10869;BMP180;62667;48.698;8.762;2022-09-04T14:03:03;96360.00;;;31.60
10869;BMP180;62667;48.698;8.762;2022-09-04T14:05:34;96379.00;;;31.90
10869;BMP180;62667;48.698;8.762;2022-09-04T14:08:05;96360.00;;;32.00
10869;BMP180;62667;48.698;8.762;2022-09-04T14:11:12;96362.00;;;32.30
10869;BMP180;62667;48.698;8.762;2022-09-04T14:14:00;96358.00;;;33.00
10869;BMP180;62667;48.698;8.762;2022-09-04T14:16:38;96354.00;;;33.30
10869;BMP180;62667;48.698;8.762;2022-09-04T14:22:18;96353.00;;;34.40
10869;BMP180;62667;48.698;8.762;2022-09-04T14:24:53;96364.00;;;33.90
10869;BMP180;62667;48.698;8.762;2022-09-04T14:27:31;96355.00;;;34.50
10869;BMP180;62667;48.698;8.762;2022-09-04T14:30:04;96391.00;;;35.40
10869;BMP180;62667;48.698;8.762;2022-09-04T14:32:42;96357.00;;;34.90
10869;BMP180;62667;48.698;8.762;2022-09-04T14:35:20;96347.00;;;36.50
10869;BMP180;62667;48.698;8.762;2022-09-04T14:40:52;96360.00;;;38.70
10869;BMP180;62667;48.698;8.762;2022-09-04T14:43:29;96357.00;;;39.10
10869;BMP180;62667;48.698;8.762;2022-09-04T14:46:10;96360.00;;;39.40
10869;BMP180;62667;48.698;8.762;2022-09-04T14:48:42;96363.00;;;39.30
10869;BMP180;62667;48.698;8.762;2022-09-04T14:51:28;96364.00;;;41.20
10869;BMP180;62667;48.698;8.762;2022-09-04T14:53:57;96367.00;;;41.70
10869;BMP180;62667;48.698;8.762;2022-09-04T14:56:30;96368.00;;;41.60
10869;BMP180;62667;48.698;8.762;2022-09-04T14:59:06;96370.00;;;41.60
10869;BMP180;62667;48.698;8.762;2022-09-04T15:01:38;96374.00;;;42.00
10869;BMP180;62667;48.698;8.762;2022-09-04T15:04:25;96376.00;;;43.00
10869;BMP180;62667;48.698;8.762;2022-09-04T15:06:56;96372.00;;;43.70
10869;BMP180;62667;48.698;8.762;2022-09-04T15:09:27;96377.00;;;42.90
10869;BMP180;62667;48.698;8.762;2022-09-04T15:12:14;96384.00;;;43.60
10869;BMP180;62667;48.698;8.762;2022-09-04T15:14:43;96380.00;;;43.40
10869;BMP180;62667;48.698;8.762;2022-09-04T15:17:20;96368.00;;;44.80
10869;BMP180;62667;48.698;8.762;2022-09-04T15:19:58;96373.00;;;44.30
10869;BMP180;62667;48.698;8.762;2022-09-04T15:22:31;96376.00;;;43.60
10869;BMP180;62667;48.698;8.762;2022-09-04T15:25:06;96376.00;;;44.30
10869;BMP180;62667;48.698;8.762;2022-09-04T15:27:41;96376.00;;;45.10
10869;BMP180;62667;48.698;8.762;2022-09-04T15:30:17;96380.00;;;44.70
10869;BMP180;62667;48.698;8.762;2022-09-04T15:32:44;96384.00;;;44.80
10869;BMP180;62667;48.698;8.762;2022-09-04T15:35:16;96387.00;;;44.20
10869;BMP180;62667;48.698;8.762;2022-09-04T15:37:50;96407.00;;;43.00
10869;BMP180;62667;48.698;8.762;2022-09-04T15:40:26;96402.00;;;41.10
10869;BMP180;62667;48.698;8.762;2022-09-04T15:43:00;96387.00;;;41.10
10869;BMP180;62667;48.698;8.762;2022-09-04T15:45:37;96414.00;;;40.90
10869;BMP180;62667;48.698;8.762;2022-09-04T15:48:17;96416.00;;;38.90
10869;BMP180;62667;48.698;8.762;2022-09-04T15:50:59;96388.00;;;38.60
10869;BMP180;62667;48.698;8.762;2022-09-04T15:53:31;96389.00;;;39.80
10869;BMP180;62667;48.698;8.762;2022-09-04T15:56:23;96385.00;;;41.50
10869;BMP180;62667;48.698;8.762;2022-09-04T15:58:57;96398.00;;;42.60
10869;BMP180;62667;48.698;8.762;2022-09-04T16:01:29;96394.00;;;42.60
10869;BMP180;62667;48.698;8.762;2022-09-04T16:04:04;96388.00;;;42.90
10869;BMP180;62667;48.698;8.762;2022-09-04T16:06:40;96384.00;;;43.20
10869;BMP180;62667;48.698;8.762;2022-09-04T16:09:18;96389.00;;;42.90
10869;BMP180;62667;48.698;8.762;2022-09-04T16:11:52;96389.00;;;43.30
10869;BMP180;62667;48.698;8.762;2022-09-04T16:14:31;96384.00;;;43.60
10869;BMP180;62667;48.698;8.762;2022-09-04T16:17:04;96385.00;;;43.40
10869;BMP180;62667;48.698;8.762;2022-09-04T16:19:37;96388.00;;;43.00
10869;BMP180;62667;48.698;8.762;2022-09-04T16:22:15;96391.00;;;43.10
10869;BMP180;62667;48.698;8.762;2022-09-04T16:24:48;96393.00;;;43.50
10869;BMP180;62667;48.698;8.762;2022-09-04T16:27:20;96389.00;;;43.40
10869;BMP180;62667;48.698;8.762;2022-09-04T16:29:49;96389.00;;;43.00
10869;BMP180;62667;48.698;8.762;2022-09-04T16:32:22;96390.00;;;42.70
10869;BMP180;62667;48.698;8.762;2022-09-04T16:34:54;96397.00;;;41.90
10869;BMP180;62667;48.698;8.762;2022-09-04T16:37:26;96404.00;;;41.00
10869;BMP180;62667;48.698;8.762;2022-09-04T16:40:02;96406.00;;;41.20
10869;BMP180;62667;48.698;8.762;2022-09-04T16:42:37;96400.00;;;40.70
10869;BMP180;62667;48.698;8.762;2022-09-04T16:45:10;96390.00;;;40.60
10869;BMP180;62667;48.698;8.762;2022-09-04T16:47:44;96394.00;;;39.80
10869;BMP180;62667;48.698;8.762;2022-09-04T16:50:17;96393.00;;;39.50
10869;BMP180;62667;48.698;8.762;2022-09-04T16:52:59;96397.00;;;38.90
10869;BMP180;62667;48.698;8.762;2022-09-04T16:55:33;96394.00;;;38.10
10869;BMP180;62667;48.698;8.762;2022-09-04T17:01:14;96396.00;;;36.80
10869;BMP180;62667;48.698;8.762;2022-09-04T17:03:57;96394.00;;;36.00
10869;BMP180;62667;48.698;8.762;2022-09-04T17:06:30;96394.00;;;35.70
10869;BMP180;62667;48.698;8.762;2022-09-04T17:09:08;96397.00;;;34.80
10869;BMP180;62667;48.698;8.762;2022-09-04T17:11:45;96392.00;;;34.60
10869;BMP180;62667;48.698;8.762;2022-09-04T17:14:21;96395.00;;;34.30
10869;BMP180;62667;48.698;8.762;2022-09-04T17:16:55;96399.00;;;34.00
10869;BMP180;62667;48.698;8.762;2022-09-04T17:19:23;96396.00;;;33.20
10869;BMP180;62667;48.698;8.762;2022-09-04T17:22:18;96410.00;;;32.70